Time;durP1;ratioP1;P1;durP2;ratioP2;P2;SDS_P1;SDS_P2;PMS_P1;PMS_P2;Temp;Humidity;BMP_temperature;BMP_pressure;BME280_temperature;BME280_humidity;BME280_pressure;Samples;Min_cycle;Max_cycle;Signal;HPM_P1;HPM_P2
2023/03/05 00:01:51;;;;;;;6.57;0.80;;;;;;;;;;5028806;28;20444;-77
2023/03/05 00:04:17;;;;;;;6.80;1.57;;;;;;;;;;5032791;28;20414;-77
2023/03/05 00:06:55;;;;;;;5.10;1.40;;;;;;;;;;5032843;28;20405;-77
2023/03/05 00:09:21;;;;;;;4.77;1.03;;;;;;;;;;5032777;28;20409;-77
2023/03/05 00:11:47;;;;;;;5.60;0.70;;;;;;;;;;5032855;28;20900;-77
2023/03/05 00:14:13;;;;;;;4.63;0.70;;;;;;;;;;5030730;28;20480;-77
2023/03/05 00:16:39;;;;;;;4.40;0.97;;;;;;;;;;5014936;28;20411;-77
2023/03/05 00:19:05;;;;;;;5.63;0.50;;;;;;;;;;5032786;28;20957;-77
2023/03/05 00:21:33;;;;;;;2.83;0.60;;;;;;;;;;5032963;28;20414;-76
2023/03/05 00:24:00;;;;;;;2.87;0.60;;;;;;;;;;5032979;28;20421;-77
2023/03/05 00:26:26;;;;;;;6.40;0.70;;;;;;;;;;5032930;28;20414;-78
2023/03/05 00:28:52;;;;;;;4.63;0.40;;;;;;;;;;5032745;28;20746;-77
2023/03/05 00:31:22;;;;;;;4.07;0.73;;;;;;;;;;5028925;28;20483;-78
2023/03/05 00:33:52;;;;;;;6.53;0.73;;;;;;;;;;5025322;28;20473;-79
2023/03/05 00:36:18;;;;;;;3.67;0.83;;;;;;;;;;5032948;28;20424;-77
2023/03/05 00:38:44;;;;;;;13.00;2.20;;;;;;;;;;5032686;28;20465;-79
2023/03/05 00:41:10;;;;;;;4.00;0.93;;;;;;;;;;5032770;28;20461;-79
2023/03/05 00:43:36;;;;;;;2.33;0.70;;;;;;;;;;5032966;28;20822;-78
2023/03/05 00:46:02;;;;;;;3.97;0.90;;;;;;;;;;5032220;28;20411;-78
2023/03/05 00:48:28;;;;;;;6.73;0.80;;;;;;;;;;5032722;28;20421;-78
2023/03/05 00:50:54;;;;;;;4.67;0.60;;;;;;;;;;5036599;28;20408;-77
2023/03/05 00:53:20;;;;;;;2.07;0.83;;;;;;;;;;5036674;28;20421;-77
2023/03/05 00:55:46;;;;;;;5.57;0.90;;;;;;;;;;5036596;28;20409;-77
2023/03/05 00:58:12;;;;;;;2.00;0.60;;;;;;;;;;5036413;28;20519;-77
2023/03/05 01:00:38;;;;;;;4.30;0.60;;;;;;;;;;5018198;28;20446;-77
2023/03/05 01:03:04;;;;;;;6.20;1.13;;;;;;;;;;5036277;28;20420;-78
2023/03/05 01:05:30;;;;;;;6.40;0.97;;;;;;;;;;5018583;28;20413;-77
2023/03/05 01:07:56;;;;;;;4.23;0.43;;;;;;;;;;5036089;28;20417;-78
2023/03/05 01:10:25;;;;;;;6.43;0.73;;;;;;;;;;5036240;28;20966;-77
2023/03/05 01:12:51;;;;;;;6.00;0.53;;;;;;;;;;5036069;28;20405;-77
2023/03/05 01:15:17;;;;;;;4.97;0.70;;;;;;;;;;5036354;28;20924;-77
2023/03/05 01:17:43;;;;;;;4.20;0.47;;;;;;;;;;5018139;28;20499;-77
2023/03/05 01:20:12;;;;;;;3.23;0.70;;;;;;;;;;5036314;28;20409;-80
2023/03/05 01:22:37;;;;;;;5.23;1.33;;;;;;;;;;5036256;28;20421;-79
2023/03/05 01:25:04;;;;;;;3.00;0.73;;;;;;;;;;5036324;28;20405;-79
2023/03/05 01:27:29;;;;;;;4.37;0.30;;;;;;;;;;5018545;28;20943;-79
2023/03/05 01:29:55;;;;;;;9.93;1.17;;;;;;;;;;5036092;28;20412;-79
2023/03/05 01:32:21;;;;;;;3.70;0.57;;;;;;;;;;5035492;28;20448;-79
2023/03/05 01:34:47;;;;;;;3.10;0.87;;;;;;;;;;5035967;28;20428;-78
2023/03/05 01:37:13;;;;;;;6.77;1.30;;;;;;;;;;5035990;28;21067;-79
2023/03/05 01:39:39;;;;;;;6.10;1.20;;;;;;;;;;5017397;28;20425;-79
2023/03/05 01:42:05;;;;;;;4.67;1.10;;;;;;;;;;4998701;28;20418;-79
2023/03/05 01:44:31;;;;;;;2.73;1.13;;;;;;;;;;4998580;28;20468;-79
2023/03/05 01:46:57;;;;;;;5.30;1.80;;;;;;;;;;4998245;28;20425;-79
2023/03/05 01:49:25;;;;;;;3.83;1.10;;;;;;;;;;5016057;28;20422;-79
2023/03/05 01:51:57;;;;;;;4.30;1.03;;;;;;;;;;5016010;28;20594;-79
2023/03/05 01:54:26;;;;;;;2.67;0.87;;;;;;;;;;5015892;28;20441;-79
2023/03/05 01:56:53;;;;;;;2.30;0.60;;;;;;;;;;5015790;28;20412;-79
2023/03/05 01:59:19;;;;;;;4.43;2.70;;;;;;;;;;5015813;28;20461;-78
2023/03/05 02:01:47;;;;;;;4.40;1.03;;;;;;;;;;4997672;28;20513;-78
2023/03/05 02:04:15;;;;;;;1.63;0.80;;;;;;;;;;5015607;28;20412;-78
2023/03/05 02:06:42;;;;;;;3.93;0.63;;;;;;;;;;4997962;28;20942;-78
2023/03/05 02:09:08;;;;;;;8.57;1.10;;;;;;;;;;5015503;28;20950;-78
2023/03/05 02:11:34;;;;;;;4.53;0.93;;;;;;;;;;5015546;28;20410;-78
2023/03/05 02:14:01;;;;;;;4.80;1.43;;;;;;;;;;5015473;28;20788;-78
2023/03/05 02:16:35;;;;;;;5.00;1.20;;;;;;;;;;5014923;28;20974;-78
2023/03/05 02:19:02;;;;;;;3.10;1.03;;;;;;;;;;5015236;28;20847;-77
2023/03/05 02:21:35;;;;;;;4.73;1.47;;;;;;;;;;5015276;28;20410;-77
2023/03/05 02:24:01;;;;;;;4.83;1.50;;;;;;;;;;5015205;28;20493;-78
2023/03/05 02:26:27;;;;;;;6.50;1.33;;;;;;;;;;5015154;28;20406;-77
2023/03/05 02:28:56;;;;;;;4.73;1.67;;;;;;;;;;5015101;28;20473;-77
2023/03/05 02:31:23;;;;;;;5.17;1.53;;;;;;;;;;5014738;28;20502;-78
2023/03/05 02:33:50;;;;;;;5.37;1.30;;;;;;;;;;5014350;28;21005;-78
2023/03/05 02:36:15;;;;;;;3.37;1.40;;;;;;;;;;5014764;28;20414;-77
2023/03/05 02:38:42;;;;;;;2.33;1.37;;;;;;;;;;4997251;28;20485;-77
2023/03/05 02:41:08;;;;;;;3.97;1.00;;;;;;;;;;5014977;28;20464;-77
2023/03/05 02:43:34;;;;;;;4.20;1.90;;;;;;;;;;5014869;28;20975;-77
2023/03/05 02:46:00;;;;;;;3.03;1.20;;;;;;;;;;5014530;28;20498;-77
2023/03/05 02:48:26;;;;;;;2.37;1.40;;;;;;;;;;5014845;28;20513;-77
2023/03/05 02:50:52;;;;;;;4.53;1.80;;;;;;;;;;5014617;28;20417;-77
2023/03/05 02:53:18;;;;;;;4.03;1.80;;;;;;;;;;5014436;28;20763;-77
2023/03/05 02:55:48;;;;;;;5.27;2.03;;;;;;;;;;4996838;28;20406;-77
2023/03/05 02:58:14;;;;;;;5.90;2.47;;;;;;;;;;5014601;28;20470;-77
2023/03/05 03:00:39;;;;;;;3.20;1.70;;;;;;;;;;5014116;28;20939;-76
2023/03/05 03:03:06;;;;;;;7.70;2.07;;;;;;;;;;5014534;28;20415;-77
2023/03/05 03:05:31;;;;;;;7.63;2.07;;;;;;;;;;4996917;28;20743;-77
2023/03/05 03:07:57;;;;;;;3.63;2.20;;;;;;;;;;4996935;28;20424;-77
2023/03/05 03:10:23;;;;;;;4.53;2.53;;;;;;;;;;4996807;28;20748;-77
2023/03/05 03:12:49;;;;;;;4.30;1.70;;;;;;;;;;5018992;28;20779;-77
2023/03/05 03:15:16;;;;;;;4.83;2.57;;;;;;;;;;5013666;28;20405;-77
2023/03/05 03:17:42;;;;;;;8.80;3.53;;;;;;;;;;5013898;28;20501;-77
2023/03/05 03:20:09;;;;;;;8.90;3.73;;;;;;;;;;5013800;28;20461;-77
2023/03/05 03:22:35;;;;;;;6.10;3.33;;;;;;;;;;5013840;28;20410;-77
2023/03/05 03:25:01;;;;;;;5.60;3.00;;;;;;;;;;4996285;28;20430;-77
2023/03/05 03:27:27;;;;;;;5.10;2.97;;;;;;;;;;5022199;28;20746;-77
2023/03/05 03:29:53;;;;;;;6.17;2.60;;;;;;;;;;5033513;28;20425;-77
2023/03/05 03:32:19;;;;;;;7.27;3.77;;;;;;;;;;5032699;28;20464;-77
2023/03/05 03:34:46;;;;;;;4.90;2.27;;;;;;;;;;5033377;28;20420;-77
2023/03/05 03:37:13;;;;;;;6.97;1.83;;;;;;;;;;5015226;28;20818;-76
2023/03/05 03:39:39;;;;;;;7.77;3.23;;;;;;;;;;5033204;28;20428;-77
2023/03/05 03:42:05;;;;;;;8.90;2.30;;;;;;;;;;5033508;28;20938;-77
2023/03/05 03:44:31;;;;;;;7.43;1.77;;;;;;;;;;5015413;28;20432;-77
2023/03/05 03:46:57;;;;;;;5.13;1.27;;;;;;;;;;5032844;28;20422;-77
2023/03/05 03:49:24;;;;;;;5.20;1.90;;;;;;;;;;5033009;28;20420;-76
2023/03/05 03:51:53;;;;;;;5.83;2.00;;;;;;;;;;5033084;28;20435;-77
2023/03/05 03:54:19;;;;;;;6.23;1.40;;;;;;;;;;5032198;28;20877;-76
2023/03/05 03:56:45;;;;;;;3.80;1.07;;;;;;;;;;5033225;28;20910;-77
2023/03/05 03:59:11;;;;;;;4.37;1.60;;;;;;;;;;5033090;28;20483;-77
2023/03/05 04:01:37;;;;;;;3.93;1.43;;;;;;;;;;5032802;28;20413;-77
2023/03/05 04:04:03;;;;;;;2.50;1.33;;;;;;;;;;5033292;28;20779;-77
2023/03/05 04:06:32;;;;;;;9.20;1.73;;;;;;;;;;5033149;28;20501;-76
2023/03/05 04:08:58;;;;;;;2.80;1.23;;;;;;;;;;5031878;28;20457;-77
2023/03/05 04:11:27;;;;;;;3.53;1.67;;;;;;;;;;5032700;28;20413;-77
2023/03/05 04:13:53;;;;;;;2.80;1.23;;;;;;;;;;5032790;28;20766;-77
2023/03/05 04:16:19;;;;;;;4.53;1.10;;;;;;;;;;5032304;28;20416;-77
2023/03/05 04:18:45;;;;;;;5.23;1.10;;;;;;;;;;5032616;28;20500;-77
2023/03/05 04:21:11;;;;;;;1.10;0.70;;;;;;;;;;5032604;28;20833;-77
2023/03/05 04:23:37;;;;;;;2.80;0.80;;;;;;;;;;5032181;28;20507;-77
2023/03/05 04:26:03;;;;;;;3.83;1.63;;;;;;;;;;5032222;28;20496;-77
2023/03/05 04:28:29;;;;;;;2.87;1.23;;;;;;;;;;5032647;28;20426;-77
2023/03/05 04:30:55;;;;;;;3.53;1.37;;;;;;;;;;5014570;28;20425;-77
2023/03/05 04:33:21;;;;;;;1.23;1.03;;;;;;;;;;5032375;28;20474;-77
2023/03/05 04:35:47;;;;;;;4.60;0.90;;;;;;;;;;5014877;28;20418;-77
2023/03/05 04:38:13;;;;;;;7.20;1.30;;;;;;;;;;5032308;28;20480;-77
2023/03/05 04:40:41;;;;;;;1.60;0.80;;;;;;;;;;5032350;28;20406;-77
2023/03/05 04:43:07;;;;;;;6.63;1.87;;;;;;;;;;5032321;28;20432;-77
2023/03/05 04:45:33;;;;;;;3.33;0.70;;;;;;;;;;5032130;28;20421;-77
2023/03/05 04:47:59;;;;;;;2.00;0.73;;;;;;;;;;5032393;28;20931;-77
2023/03/05 04:50:25;;;;;;;2.73;1.00;;;;;;;;;;5032505;28;20900;-77
2023/03/05 04:52:51;;;;;;;1.40;1.17;;;;;;;;;;5032375;28;20594;-77
2023/03/05 04:55:18;;;;;;;3.10;1.10;;;;;;;;;;5032053;28;20404;-77
2023/03/05 04:57:44;;;;;;;3.17;1.00;;;;;;;;;;5032229;28;20458;-77
2023/03/05 05:00:14;;;;;;;4.60;1.33;;;;;;;;;;5031713;28;20418;-77
2023/03/05 05:02:41;;;;;;;2.37;0.93;;;;;;;;;;5032151;28;20436;-77
2023/03/05 05:05:07;;;;;;;2.77;0.67;;;;;;;;;;5032288;28;20584;-77
2023/03/05 05:07:33;;;;;;;4.00;1.13;;;;;;;;;;5031912;28;20459;-77
2023/03/05 05:09:59;;;;;;;3.97;0.97;;;;;;;;;;5032184;28;20460;-77
2023/03/05 05:12:28;;;;;;;2.03;1.00;;;;;;;;;;5032386;28;20415;-77
2023/03/05 05:14:54;;;;;;;0.60;0.30;;;;;;;;;;5030688;28;20445;-77
2023/03/05 05:17:20;;;;;;;3.67;0.90;;;;;;;;;;5031640;28;20879;-77
2023/03/05 05:19:46;;;;;;;6.10;1.80;;;;;;;;;;5032552;28;20431;-78
2023/03/05 05:22:12;;;;;;;5.00;1.67;;;;;;;;;;5032448;28;20487;-77
2023/03/05 05:24:41;;;;;;;2.60;1.33;;;;;;;;;;5032333;28;20436;-77
2023/03/05 05:27:10;;;;;;;3.17;1.73;;;;;;;;;;5032426;28;20468;-77
2023/03/05 05:29:36;;;;;;;8.00;2.27;;;;;;;;;;5032372;28;20413;-77
2023/03/05 05:32:01;;;;;;;6.30;1.43;;;;;;;;;;5031869;28;20483;-77
2023/03/05 05:34:27;;;;;;;2.93;0.63;;;;;;;;;;5014672;28;20429;-76
2023/03/05 05:36:53;;;;;;;4.73;1.37;;;;;;;;;;5035993;28;20475;-78
2023/03/05 05:39:19;;;;;;;5.40;1.07;;;;;;;;;;5018143;28;20484;-77
2023/03/05 05:41:45;;;;;;;5.00;0.87;;;;;;;;;;5035939;28;20404;-77
2023/03/05 05:44:11;;;;;;;6.73;0.70;;;;;;;;;;5035890;28;20954;-78
2023/03/05 05:46:37;;;;;;;1.17;0.33;;;;;;;;;;5035481;28;20415;-78
2023/03/05 05:49:03;;;;;;;4.00;1.43;;;;;;;;;;5035815;28;20409;-77
2023/03/05 05:51:32;;;;;;;3.03;0.93;;;;;;;;;;5035846;28;20419;-79
2023/03/05 05:53:57;;;;;;;2.87;1.33;;;;;;;;;;5035724;28;20467;-77
2023/03/05 05:56:24;;;;;;;1.80;0.67;;;;;;;;;;5035723;28;20860;-77
2023/03/05 05:58:56;;;;;;;4.03;1.43;;;;;;;;;;5035678;28;20495;-77
2023/03/05 06:01:27;;;;;;;1.70;1.27;;;;;;;;;;5035230;28;20814;-77
2023/03/05 06:03:53;;;;;;;3.23;1.70;;;;;;;;;;5035542;28;20409;-77
2023/03/05 06:06:20;;;;;;;3.80;1.60;;;;;;;;;;5035505;28;20409;-77
2023/03/05 06:08:46;;;;;;;4.13;1.87;;;;;;;;;;4994181;28;20781;-77
2023/03/05 06:11:12;;;;;;;5.70;1.07;;;;;;;;;;5035378;28;20436;-77
2023/03/05 06:13:38;;;;;;;3.20;0.97;;;;;;;;;;5035318;28;20460;-77
2023/03/05 06:16:06;;;;;;;2.67;0.90;;;;;;;;;;5034953;28;20417;-77
2023/03/05 06:18:33;;;;;;;7.97;1.40;;;;;;;;;;5035156;28;20810;-77
2023/03/05 06:21:03;;;;;;;2.10;0.60;;;;;;;;;;5035214;28;20418;-78
2023/03/05 06:23:29;;;;;;;2.37;1.67;;;;;;;;;;5035096;28;20488;-77
2023/03/05 06:25:58;;;;;;;3.43;0.63;;;;;;;;;;5017344;28;20424;-77
2023/03/05 06:28:27;;;;;;;1.70;0.80;;;;;;;;;;5035062;28;20805;-78
2023/03/05 06:31:06;;;;;;;7.83;1.00;;;;;;;;;;5034634;28;20409;-78
2023/03/05 06:33:32;;;;;;;1.37;0.73;;;;;;;;;;5034653;28;20448;-78
2023/03/05 06:35:58;;;;;;;1.10;0.63;;;;;;;;;;5034864;28;20927;-77
2023/03/05 06:38:24;;;;;;;2.00;0.50;;;;;;;;;;5034691;28;20472;-78
2023/03/05 06:40:50;;;;;;;6.53;0.83;;;;;;;;;;5034713;28;20920;-77
2023/03/05 06:43:17;;;;;;;3.30;0.90;;;;;;;;;;5016988;28;20416;-78
2023/03/05 06:45:43;;;;;;;2.67;0.57;;;;;;;;;;5034237;28;20421;-77
2023/03/05 06:48:10;;;;;;;2.10;0.50;;;;;;;;;;5034559;28;20448;-77
2023/03/05 06:50:36;;;;;;;4.03;0.67;;;;;;;;;;5034667;28;20947;-77
2023/03/05 06:53:02;;;;;;;3.17;1.00;;;;;;;;;;5034555;28;20413;-77
2023/03/05 06:55:28;;;;;;;3.00;0.70;;;;;;;;;;5034534;28;20478;-78
2023/03/05 06:57:57;;;;;;;3.53;0.87;;;;;;;;;;5034386;28;20510;-78
2023/03/05 07:00:23;;;;;;;1.57;1.10;;;;;;;;;;5034071;28;20421;-79
2023/03/05 07:02:49;;;;;;;2.40;0.70;;;;;;;;;;5034431;28;20828;-79
2023/03/05 07:05:15;;;;;;;4.00;1.17;;;;;;;;;;5016651;28;20422;-77
2023/03/05 07:07:41;;;;;;;2.67;1.67;;;;;;;;;;5034287;28;20496;-78
2023/03/05 07:10:08;;;;;;;3.13;1.30;;;;;;;;;;4993088;28;20580;-79
2023/03/05 07:12:34;;;;;;;6.00;2.10;;;;;;;;;;5034090;28;20426;-78
2023/03/05 07:15:00;;;;;;;2.77;1.60;;;;;;;;;;5033839;28;20888;-77
2023/03/05 07:17:26;;;;;;;4.30;1.43;;;;;;;;;;5016348;28;20464;-78
2023/03/05 07:19:52;;;;;;;6.80;2.40;;;;;;;;;;5034118;28;20544;-77
2023/03/05 07:22:18;;;;;;;4.73;1.87;;;;;;;;;;5033992;28;20937;-78
2023/03/05 07:24:44;;;;;;;5.27;1.80;;;;;;;;;;5033988;28;20410;-77
2023/03/05 07:27:10;;;;;;;2.80;1.30;;;;;;;;;;5033904;28;20406;-77
2023/03/05 07:29:36;;;;;;;4.40;1.23;;;;;;;;;;5033486;28;20851;-77
2023/03/05 07:32:02;;;;;;;4.33;1.47;;;;;;;;;;5033756;28;20415;-77
2023/03/05 07:34:28;;;;;;;6.30;1.90;;;;;;;;;;5016020;28;20441;-77
2023/03/05 07:36:54;;;;;;;5.77;2.00;;;;;;;;;;5033700;28;20473;-77
2023/03/05 07:39:20;;;;;;;5.33;2.10;;;;;;;;;;5015908;28;20480;-79
2023/03/05 07:41:48;;;;;;;4.70;2.47;;;;;;;;;;5033700;28;20904;-78
2023/03/05 07:44:14;;;;;;;3.60;1.13;;;;;;;;;;5033517;28;20443;-78
2023/03/05 07:46:43;;;;;;;2.67;1.50;;;;;;;;;;5033223;28;20406;-78
2023/03/05 07:49:09;;;;;;;2.73;1.43;;;;;;;;;;5033433;28;20419;-78
2023/03/05 07:51:35;;;;;;;4.40;1.90;;;;;;;;;;5015806;28;20420;-78
2023/03/05 07:54:01;;;;;;;11.13;1.97;;;;;;;;;;5033372;28;20504;-78
2023/03/05 07:56:34;;;;;;;2.30;1.20;;;;;;;;;;5033325;28;20421;-78
2023/03/05 07:59:00;;;;;;;2.00;1.20;;;;;;;;;;5032907;28;20480;-78
2023/03/05 08:01:29;;;;;;;6.43;1.93;;;;;;;;;;5032941;28;20503;-78
2023/03/05 08:03:55;;;;;;;3.67;1.70;;;;;;;;;;5033286;28;20480;-78
2023/03/05 08:06:20;;;;;;;2.50;1.20;;;;;;;;;;5033277;28;20885;-80
2023/03/05 08:08:46;;;;;;;5.03;1.80;;;;;;;;;;5033267;28;20423;-77
2023/03/05 08:11:13;;;;;;;1.87;1.13;;;;;;;;;;4992680;28;20826;-78
2023/03/05 08:13:40;;;;;;;5.17;2.47;;;;;;;;;;5033210;28;20417;-79
2023/03/05 08:16:06;;;;;;;6.00;2.30;;;;;;;;;;5032829;28;20452;-77
2023/03/05 08:18:32;;;;;;;3.90;1.83;;;;;;;;;;5015349;28;20476;-78
2023/03/05 08:20:58;;;;;;;4.40;1.47;;;;;;;;;;5033103;28;20418;-78
2023/03/05 08:23:24;;;;;;;2.63;1.47;;;;;;;;;;5033096;28;20785;-77
2023/03/05 08:25:50;;;;;;;4.60;1.40;;;;;;;;;;5033101;28;20407;-77
2023/03/05 08:28:18;;;;;;;7.43;2.40;;;;;;;;;;5033002;28;20425;-78
2023/03/05 08:30:44;;;;;;;1.77;1.17;;;;;;;;;;5032669;28;20415;-74
2023/03/05 08:33:10;;;;;;;4.07;0.90;;;;;;;;;;5032732;28;20453;-77
2023/03/05 08:35:37;;;;;;;9.10;1.53;;;;;;;;;;5032935;28;20437;-77
2023/03/05 08:38:03;;;;;;;7.73;3.20;;;;;;;;;;5032897;28;20829;-77
2023/03/05 08:40:29;;;;;;;2.47;1.23;;;;;;;;;;5032892;28;20417;-78
2023/03/05 08:42:55;;;;;;;4.47;1.80;;;;;;;;;;5032935;28;20409;-77
2023/03/05 08:45:20;;;;;;;2.40;1.80;;;;;;;;;;5032577;28;20415;-78
2023/03/05 08:47:46;;;;;;;2.47;1.10;;;;;;;;;;5032784;28;20403;-77
2023/03/05 08:50:12;;;;;;;1.90;0.97;;;;;;;;;;5032793;28;20900;-78
2023/03/05 08:52:38;;;;;;;2.83;1.30;;;;;;;;;;5032772;28;20417;-78
2023/03/05 08:55:04;;;;;;;1.30;0.50;;;;;;;;;;5032806;28;20405;-78
2023/03/05 08:57:30;;;;;;;1.87;0.60;;;;;;;;;;5032624;28;20958;-79
2023/03/05 08:59:56;;;;;;;2.40;0.87;;;;;;;;;;5032414;28;20428;-79
2023/03/05 09:02:22;;;;;;;2.40;0.63;;;;;;;;;;5032740;28;20468;-78
2023/03/05 09:04:51;;;;;;;6.17;0.77;;;;;;;;;;5032620;28;20417;-78
2023/03/05 09:07:17;;;;;;;3.13;0.80;;;;;;;;;;5032747;28;20443;-78
2023/03/05 09:09:43;;;;;;;4.57;0.80;;;;;;;;;;5033046;28;20412;-78
2023/03/05 09:12:10;;;;;;;2.80;0.83;;;;;;;;;;5036501;28;20467;-78
2023/03/05 09:14:36;;;;;;;4.17;0.97;;;;;;;;;;5036051;28;20204;-77
2023/03/05 09:17:02;;;;;;;3.90;0.63;;;;;;;;;;5036306;28;20415;-78
2023/03/05 09:19:28;;;;;;;4.70;0.60;;;;;;;;;;5036292;28;20490;-79
2023/03/05 09:21:54;;;;;;;1.13;0.60;;;;;;;;;;4994968;28;20431;-76
2023/03/05 09:24:20;;;;;;;3.57;0.90;;;;;;;;;;5036466;28;20505;-77
2023/03/05 09:26:45;;;;;;;1.90;0.50;;;;;;;;;;5036209;28;20832;-76
2023/03/05 09:29:11;;;;;;;2.37;0.57;;;;;;;;;;5035758;28;20409;-76
2023/03/05 09:31:37;;;;;;;1.70;0.70;;;;;;;;;;5035960;28;20417;-76
2023/03/05 09:34:04;;;;;;;1.63;0.47;;;;;;;;;;5035775;28;20464;-76
2023/03/05 09:36:30;;;;;;;2.00;0.70;;;;;;;;;;5035980;28;20467;-76
2023/03/05 09:38:59;;;;;;;6.47;0.93;;;;;;;;;;5035846;28;20474;-76
2023/03/05 09:41:35;;;;;;;2.27;0.60;;;;;;;;;;5035811;28;20500;-76
2023/03/05 09:44:07;;;;;;;2.37;1.03;;;;;;;;;;5017994;28;20849;-76
2023/03/05 09:46:52;;;;;;;4.43;0.40;;;;;;;;;;5034891;28;20482;-82
2023/03/05 09:49:30;;;;;;;1.87;0.50;;;;;;;;;;5017945;28;20451;-77
2023/03/05 09:51:59;;;;;;;4.30;0.83;;;;;;;;;;5035777;28;20761;-77
2023/03/05 09:54:37;;;;;;;4.70;0.50;;;;;;;;;;5035543;28;20479;-75
2023/03/05 09:57:04;;;;;;;5.00;0.50;;;;;;;;;;5035612;28;20407;-76
2023/03/05 09:59:38;;;;;;;2.90;0.50;;;;;;;;;;5035160;28;20954;-76
2023/03/05 10:02:12;;;;;;;2.30;0.50;;;;;;;;;;5035487;28;20423;-76
2023/03/05 10:04:44;;;;;;;1.67;0.47;;;;;;;;;;5035532;28;20972;-76
2023/03/05 10:07:18;;;;;;;4.13;0.70;;;;;;;;;;5035477;28;20503;-75
2023/03/05 10:09:58;;;;;;;2.63;0.70;;;;;;;;;;5035361;28;20418;-75
2023/03/05 10:12:32;;;;;;;2.00;0.50;;;;;;;;;;5035320;28;20411;-75
2023/03/05 10:14:59;;;;;;;3.53;0.33;;;;;;;;;;5034939;28;20411;-76
2023/03/05 10:17:31;;;;;;;4.47;1.30;;;;;;;;;;5035204;28;20905;-76
2023/03/05 10:20:03;;;;;;;1.17;0.33;;;;;;;;;;5035189;28;20420;-75
2023/03/05 10:22:53;;;;;;;5.50;0.60;;;;;;;;;;5017079;28;20416;-75
2023/03/05 10:25:41;;;;;;;0.67;0.63;;;;;;;;;;4994888;28;20457;-75
2023/03/05 10:28:19;;;;;;;6.30;2.10;;;;;;;;;;5017305;28;20910;-75
2023/03/05 10:30:56;;;;;;;2.30;0.53;;;;;;;;;;5034737;28;20505;-75
2023/03/05 10:33:22;;;;;;;3.57;0.70;;;;;;;;;;5034904;28;20478;-75
2023/03/05 10:35:59;;;;;;;4.63;1.03;;;;;;;;;;5017161;28;20494;-75
2023/03/05 10:38:28;;;;;;;1.07;0.30;;;;;;;;;;5034873;28;20469;-75
2023/03/05 10:40:55;;;;;;;2.20;1.03;;;;;;;;;;5034851;28;20898;-75
2023/03/05 10:43:30;;;;;;;1.10;0.87;;;;;;;;;;5034745;28;20403;-75
2023/03/05 10:45:56;;;;;;;1.40;0.70;;;;;;;;;;5034398;28;20495;-75
2023/03/05 10:48:36;;;;;;;2.10;0.47;;;;;;;;;;5034687;28;20506;-74
2023/03/05 10:51:17;;;;;;;3.20;0.57;;;;;;;;;;5034730;28;20440;-75
2023/03/05 10:53:43;;;;;;;2.43;0.93;;;;;;;;;;5034606;28;20413;-75
2023/03/05 10:56:11;;;;;;;3.50;1.27;;;;;;;;;;5034494;28;20924;-75
2023/03/05 10:58:37;;;;;;;1.80;0.53;;;;;;;;;;5034317;28;20249;-76
2023/03/05 11:01:06;;;;;;;6.70;1.47;;;;;;;;;;5034034;28;20410;-76
2023/03/05 11:03:50;;;;;;;8.97;1.87;;;;;;;;;;5016507;28;20453;-76
2023/03/05 11:06:27;;;;;;;6.10;1.70;;;;;;;;;;5022067;28;20435;-77
2023/03/05 11:08:53;;;;;;;3.70;1.73;;;;;;;;;;5019168;28;20437;-78
2023/03/05 11:11:20;;;;;;;7.37;2.37;;;;;;;;;;5020055;28;20487;-76
2023/03/05 11:13:53;;;;;;;3.33;1.27;;;;;;;;;;5020942;28;20434;-76
2023/03/05 11:16:25;;;;;;;6.73;0.60;;;;;;;;;;5020535;28;20428;-78
2023/03/05 11:19:10;;;;;;;2.90;0.60;;;;;;;;;;5019814;28;20519;-76
2023/03/05 11:21:36;;;;;;;4.70;1.07;;;;;;;;;;5002728;28;20439;-78
2023/03/05 11:24:15;;;;;;;1.53;0.87;;;;;;;;;;5019066;28;20443;-78
2023/03/05 11:26:52;;;;;;;2.03;1.17;;;;;;;;;;4998913;28;20184;-77
2023/03/05 11:29:20;;;;;;;5.57;1.37;;;;;;;;;;5022006;28;20430;-77
2023/03/05 11:31:46;;;;;;;5.93;1.13;;;;;;;;;;5013673;28;20440;-77
2023/03/05 11:36:38;;;;;;;2.80;0.70;;;;;;;;;;5141266;22;20458;-76
2023/03/05 11:39:07;;;;;;;3.23;0.80;;;;;;;;;;5098217;28;20431;-76
2023/03/05 11:42:02;;;;;;;2.77;1.00;;;;;;;;;;5087963;28;20772;-75
2023/03/05 11:44:28;;;;;;;5.00;0.87;;;;;;;;;;5074921;28;20999;-76
2023/03/05 11:46:57;;;;;;;3.17;0.43;;;;;;;;;;5069684;28;20506;-78
2023/03/05 11:49:25;;;;;;;2.90;0.37;;;;;;;;;;5069887;28;20430;-79
2023/03/05 11:52:00;;;;;;;5.40;1.80;;;;;;;;;;5069701;28;20403;-77
2023/03/05 11:54:30;;;;;;;1.80;0.37;;;;;;;;;;5070485;28;20973;-94
2023/03/05 11:56:56;;;;;;;2.20;0.50;;;;;;;;;;5081809;28;20420;-89
2023/03/05 11:59:27;;;;;;;1.10;0.47;;;;;;;;;;5088536;28;20402;-90
2023/03/05 12:01:54;;;;;;;1.80;0.43;;;;;;;;;;5089388;28;20513;-93
2023/03/05 12:04:21;;;;;;;3.13;0.83;;;;;;;;;;5092106;28;20406;-94
2023/03/05 12:06:56;;;;;;;1.93;0.50;;;;;;;;;;5093219;28;20414;-85
2023/03/05 12:09:39;;;;;;;3.13;0.50;;;;;;;;;;5089608;28;20396;-84
2023/03/05 12:12:24;;;;;;;2.07;0.57;;;;;;;;;;5089124;28;20424;-85
2023/03/05 12:14:57;;;;;;;3.13;0.47;;;;;;;;;;5088129;28;20836;-84
2023/03/05 12:17:37;;;;;;;1.50;0.20;;;;;;;;;;5081124;28;20419;-85
2023/03/05 12:20:12;;;;;;;0.50;0.20;;;;;;;;;;5088389;28;20391;-84
2023/03/05 12:22:42;;;;;;;1.57;0.20;;;;;;;;;;5088477;28;20472;-83
2023/03/05 12:25:26;;;;;;;1.43;0.50;;;;;;;;;;5088163;28;20499;-86
2023/03/05 12:27:52;;;;;;;2.50;0.93;;;;;;;;;;5088456;28;20737;-86
2023/03/05 12:30:34;;;;;;;3.13;0.40;;;;;;;;;;5030502;28;20429;-85
2023/03/05 12:33:01;;;;;;;0.87;0.43;;;;;;;;;;5067671;28;20458;-87
2023/03/05 12:35:28;;;;;;;2.00;0.50;;;;;;;;;;5072086;28;20469;-85
2023/03/05 12:37:54;;;;;;;1.57;0.50;;;;;;;;;;5087071;28;20992;-88
2023/03/05 12:40:20;;;;;;;2.97;0.57;;;;;;;;;;5086932;28;20446;-84
2023/03/05 12:42:57;;;;;;;1.23;0.50;;;;;;;;;;5088259;28;20935;-87
2023/03/05 12:45:24;;;;;;;1.60;0.60;;;;;;;;;;5086246;28;20504;-86
2023/03/05 12:47:59;;;;;;;2.27;0.80;;;;;;;;;;5074467;28;20408;-86
2023/03/05 12:50:28;;;;;;;1.03;0.60;;;;;;;;;;5073462;28;20424;-88
2023/03/05 12:52:54;;;;;;;1.43;0.30;;;;;;;;;;5072967;28;20754;-82
2023/03/05 12:55:26;;;;;;;3.00;0.63;;;;;;;;;;5073891;28;20502;-85
2023/03/05 12:57:56;;;;;;;3.63;0.50;;;;;;;;;;5073795;28;20180;-87
2023/03/05 13:00:26;;;;;;;3.13;0.60;;;;;;;;;;5074095;28;20443;-85
2023/03/05 13:02:58;;;;;;;0.90;0.30;;;;;;;;;;5074626;28;20409;-84
2023/03/05 13:05:32;;;;;;;2.10;0.57;;;;;;;;;;5075488;28;20392;-88
2023/03/05 13:08:10;;;;;;;1.13;0.20;;;;;;;;;;5073669;28;20418;-84
2023/03/05 13:10:36;;;;;;;1.67;0.30;;;;;;;;;;5073458;28;20472;-84
2023/03/05 13:13:02;;;;;;;3.87;0.20;;;;;;;;;;5074184;28;20405;-85
2023/03/05 13:15:28;;;;;;;2.70;0.27;;;;;;;;;;5073601;28;20894;-87
2023/03/05 13:17:59;;;;;;;3.10;0.50;;;;;;;;;;5072390;28;20419;-86
2023/03/05 13:20:36;;;;;;;1.63;0.20;;;;;;;;;;5073577;28;20716;-87
2023/03/05 13:23:22;;;;;;;3.33;0.40;;;;;;;;;;5072756;28;20774;-86
2023/03/05 13:26:11;;;;;;;0.90;0.40;;;;;;;;;;5072837;28;20439;-88
2023/03/05 13:28:38;;;;;;;2.10;0.40;;;;;;;;;;5074143;28;20898;-87
2023/03/05 13:31:11;;;;;;;2.10;0.40;;;;;;;;;;5074095;28;20802;-87
2023/03/05 13:33:37;;;;;;;0.60;0.27;;;;;;;;;;5072540;28;20405;-86
2023/03/05 13:36:09;;;;;;;2.10;0.30;;;;;;;;;;5072402;28;20564;-87
2023/03/05 13:38:39;;;;;;;3.90;0.77;;;;;;;;;;5072499;28;20529;-88
2023/03/05 13:41:14;;;;;;;1.17;0.20;;;;;;;;;;5061877;28;20500;-88
2023/03/05 13:43:51;;;;;;;1.03;0.60;;;;;;;;;;5052799;28;20403;-87
2023/03/05 13:46:24;;;;;;;10.13;0.87;;;;;;;;;;5052385;28;20931;-87
2023/03/05 13:48:50;;;;;;;1.13;0.40;;;;;;;;;;5053899;28;20403;-88
2023/03/05 13:51:16;;;;;;;1.13;0.30;;;;;;;;;;5052760;28;20872;-88
2023/03/05 13:53:42;;;;;;;1.60;0.23;;;;;;;;;;5054288;28;20458;-88
2023/03/05 13:56:15;;;;;;;1.37;0.30;;;;;;;;;;5053780;28;20475;-89
2023/03/05 13:58:46;;;;;;;1.60;0.70;;;;;;;;;;5051454;28;20548;-87
2023/03/05 14:01:25;;;;;;;0.93;0.37;;;;;;;;;;5053125;28;20424;-87
2023/03/05 14:03:51;;;;;;;2.77;0.20;;;;;;;;;;5051878;28;20414;-87
2023/03/05 14:06:21;;;;;;;2.50;0.40;;;;;;;;;;5053102;28;20416;-87
2023/03/05 14:08:54;;;;;;;0.60;0.30;;;;;;;;;;5051759;28;20546;-87
2023/03/05 14:11:21;;;;;;;1.90;0.30;;;;;;;;;;5051736;28;20434;-86
2023/03/05 14:13:48;;;;;;;0.70;0.20;;;;;;;;;;5052548;28;20419;-85
2023/03/05 14:16:22;;;;;;;0.40;0.20;;;;;;;;;;5051925;28;20605;-88
2023/03/05 14:18:53;;;;;;;1.10;0.30;;;;;;;;;;5052208;28;20514;-88
2023/03/05 14:21:19;;;;;;;1.10;0.40;;;;;;;;;;5052794;28;20702;-85
2023/03/05 14:23:46;;;;;;;1.13;0.30;;;;;;;;;;5051793;28;20417;-89
2023/03/05 14:26:31;;;;;;;2.60;0.77;;;;;;;;;;5052459;28;20419;-88
2023/03/05 14:29:01;;;;;;;1.87;0.60;;;;;;;;;;5051616;28;20417;-90
2023/03/05 14:31:28;;;;;;;1.37;0.20;;;;;;;;;;5052622;28;20420;-85
2023/03/05 14:34:00;;;;;;;2.60;0.40;;;;;;;;;;5053490;28;20972;-87
2023/03/05 14:36:27;;;;;;;2.63;0.30;;;;;;;;;;5052906;28;20996;-89
2023/03/05 14:39:00;;;;;;;3.30;0.40;;;;;;;;;;5053368;28;20463;-88
2023/03/05 14:41:33;;;;;;;0.50;0.30;;;;;;;;;;5053339;28;20787;-87
2023/03/05 14:43:59;;;;;;;4.03;0.40;;;;;;;;;;5053052;28;20464;-86
2023/03/05 14:46:25;;;;;;;2.57;0.40;;;;;;;;;;5052801;28;20441;-89
2023/03/05 14:48:50;;;;;;;3.23;0.53;;;;;;;;;;5052974;28;20416;-86
2023/03/05 14:51:17;;;;;;;1.67;0.30;;;;;;;;;;5051513;28;20414;-86
2023/03/05 14:53:44;;;;;;;1.40;0.33;;;;;;;;;;5050889;28;20426;-86